createdAt,value
2023-02-11T00:00:20.213Z,-5.14
2023-02-11T00:02:47.987Z,-5.17
2023-02-11T00:05:15.281Z,-5.15
2023-02-11T00:07:42.038Z,-5.25
2023-02-11T00:10:09.385Z,-5.02
2023-02-11T00:12:37.051Z,-4.97
2023-02-11T00:15:04.885Z,-4.93
2023-02-11T00:17:32.468Z,-5.02
2023-02-11T00:19:59.214Z,-5.15
2023-02-11T00:22:25.991Z,-5.18
2023-02-11T00:24:52.692Z,-5.20
2023-02-11T00:27:20.477Z,-5.18
2023-02-11T00:29:47.182Z,-5.23
2023-02-11T00:32:14.018Z,-5.28
2023-02-11T00:34:40.936Z,-5.39
2023-02-11T00:37:07.716Z,-5.30
2023-02-11T00:39:34.425Z,-5.33
2023-02-11T00:42:03.342Z,-5.34
2023-02-11T00:44:30.334Z,-5.49
2023-02-11T00:46:57.092Z,-5.71
2023-02-11T00:49:25.268Z,-5.65
2023-02-11T00:51:51.973Z,-5.67
2023-02-11T00:54:20.099Z,-5.66
2023-02-11T00:56:46.861Z,-5.68
2023-02-11T00:59:13.590Z,-5.75
2023-02-11T01:01:40.423Z,-5.87
2023-02-11T01:04:09.028Z,-5.75
2023-02-11T01:06:35.817Z,-5.77
2023-02-11T01:09:02.667Z,-5.77
2023-02-11T01:11:29.375Z,-5.92
2023-02-11T01:13:56.108Z,-5.84
2023-02-11T01:16:22.939Z,-5.87
2023-02-11T01:18:49.969Z,-5.89
2023-02-11T01:21:17.701Z,-5.92
2023-02-11T01:23:44.508Z,-5.93
2023-02-11T01:26:11.919Z,-5.92
2023-02-11T01:28:38.934Z,-5.95
2023-02-11T01:31:05.734Z,-5.93
2023-02-11T01:33:32.868Z,-6.04
2023-02-11T01:36:04.621Z,-6.08
2023-02-11T01:38:33.236Z,-6.11
2023-02-11T01:41:06.832Z,-6.08
2023-02-11T01:43:37.773Z,-6.04
2023-02-11T01:46:23.492Z,-5.98
2023-02-11T01:49:07.084Z,-6.02
2023-02-11T01:51:39.292Z,-5.96
2023-02-11T01:54:29.067Z,-5.94
2023-02-11T01:57:17.799Z,-6.04
2023-02-11T02:00:15.712Z,-6.28
2023-02-11T02:03:04.666Z,-6.44
2023-02-11T02:05:40.145Z,-6.51
2023-02-11T02:08:32.111Z,-6.51
2023-02-11T02:11:00.962Z,-6.66
2023-02-11T02:13:30.350Z,-6.56
2023-02-11T02:16:18.205Z,-6.61
2023-02-11T02:18:59.869Z,-6.65
2023-02-11T02:21:45.169Z,-6.68
2023-02-11T02:24:36.354Z,-6.66
2023-02-11T02:27:32.019Z,-6.62
2023-02-11T02:30:46.681Z,-6.64
2023-02-11T02:33:30.881Z,-6.69
2023-02-11T02:36:09.400Z,-6.77
2023-02-11T02:38:58.126Z,-6.81
2023-02-11T02:41:29.992Z,-7.16
2023-02-11T02:43:57.015Z,-6.82
2023-02-11T02:46:27.464Z,-6.84
2023-02-11T02:48:56.299Z,-6.87
2023-02-11T02:51:22.943Z,-6.84
2023-02-11T02:53:55.285Z,-6.76
2023-02-11T02:56:44.031Z,-6.78
2023-02-11T02:59:16.566Z,-6.66
2023-02-11T03:02:03.454Z,-6.60
2023-02-11T03:04:47.008Z,-6.59
2023-02-11T03:07:35.877Z,-6.71
2023-02-11T03:10:16.903Z,-6.66
2023-02-11T03:12:46.365Z,-6.73
2023-02-11T03:15:14.989Z,-6.67
2023-02-11T03:17:45.834Z,-6.60
2023-02-11T03:20:16.791Z,-6.57
2023-02-11T03:22:49.556Z,-6.69
2023-02-11T03:25:16.838Z,-6.62
2023-02-11T03:28:06.517Z,-6.80
2023-02-11T03:30:44.865Z,-6.89
2023-02-11T03:33:19.077Z,-6.94
2023-02-11T03:35:59.981Z,-7.01
2023-02-11T03:38:32.619Z,-6.98
2023-02-11T03:41:02.170Z,-6.91
2023-02-11T03:43:42.198Z,-6.95
2023-02-11T03:46:11.322Z,-6.94
2023-02-11T03:48:49.474Z,-6.95
2023-02-11T03:51:17.462Z,-6.92
2023-02-11T03:53:46.586Z,-6.89
2023-02-11T03:56:21.659Z,-6.85
2023-02-11T03:58:49.030Z,-6.87
2023-02-11T04:01:16.259Z,-7.02
2023-02-11T04:03:43.103Z,-6.96
2023-02-11T04:06:09.808Z,-6.92
2023-02-11T04:08:36.588Z,-6.86
2023-02-11T04:11:03.381Z,-6.82
2023-02-11T04:13:30.583Z,-6.81
2023-02-11T04:15:57.187Z,-6.85
2023-02-11T04:18:23.920Z,-6.85
2023-02-11T04:20:51.116Z,-6.93
2023-02-11T04:23:17.818Z,-6.91
2023-02-11T04:25:44.543Z,-6.93
2023-02-11T04:28:11.243Z,-7.15
2023-02-11T04:30:38.060Z,-7.19
2023-02-11T04:33:04.867Z,-7.24
2023-02-11T04:35:31.564Z,-7.27
2023-02-11T04:37:58.318Z,-7.31
2023-02-11T04:40:25.104Z,-7.33
2023-02-11T04:42:51.795Z,-7.51
2023-02-11T04:45:18.609Z,-7.43
2023-02-11T04:47:45.336Z,-7.50
2023-02-11T04:50:12.098Z,-7.55
2023-02-11T04:52:38.914Z,-7.59
2023-02-11T04:55:06.075Z,-7.66
2023-02-11T04:57:32.805Z,-7.58
2023-02-11T04:59:59.557Z,-7.54
2023-02-11T05:02:26.240Z,-7.58
2023-02-11T05:04:53.282Z,-7.58
2023-02-11T05:07:20.046Z,-7.67
2023-02-11T05:09:46.763Z,-7.59
2023-02-11T05:12:13.546Z,-7.63
2023-02-11T05:14:40.307Z,-7.53
2023-02-11T05:17:07.195Z,-7.52
2023-02-11T05:19:34.077Z,-7.76
2023-02-11T05:22:03.403Z,-7.68
2023-02-11T05:24:32.497Z,-7.74
2023-02-11T05:26:59.693Z,-7.89
2023-02-11T05:29:26.314Z,-7.70
2023-02-11T05:31:53.219Z,-7.75
2023-02-11T05:34:20.317Z,-7.70
2023-02-11T05:36:47.563Z,-7.68
2023-02-11T05:39:14.510Z,-7.64
2023-02-11T05:41:41.239Z,-7.62
2023-02-11T05:44:08.025Z,-7.74
2023-02-11T05:46:34.865Z,-7.78
2023-02-11T05:49:01.595Z,-7.88
2023-02-11T05:51:28.447Z,-7.87
2023-02-11T05:53:55.815Z,-7.93
2023-02-11T05:56:22.580Z,-7.80
2023-02-11T05:58:49.331Z,-7.66
2023-02-11T06:01:16.138Z,-7.63
2023-02-11T06:03:42.901Z,-7.91
2023-02-11T06:06:11.782Z,-7.52
2023-02-11T06:08:39.409Z,-7.61
2023-02-11T06:11:06.231Z,-7.74
2023-02-11T06:13:32.962Z,-7.77
2023-02-11T06:16:01.168Z,-7.59
2023-02-11T06:18:28.211Z,-7.67
2023-02-11T06:20:55.261Z,-7.68
2023-02-11T06:23:22.443Z,-7.76
2023-02-11T06:25:49.882Z,-7.56
2023-02-11T06:28:16.845Z,-7.52
2023-02-11T06:30:43.741Z,-7.49
2023-02-11T06:33:10.658Z,-7.48
2023-02-11T06:35:40.411Z,-7.44
2023-02-11T06:38:07.366Z,-7.40
2023-02-11T06:40:34.156Z,-7.24
2023-02-11T06:43:00.911Z,-7.13
2023-02-11T06:45:27.591Z,-7.09
2023-02-11T06:47:55.376Z,-6.85
2023-02-11T06:50:22.180Z,-6.75
2023-02-11T06:52:49.641Z,-6.87
2023-02-11T06:55:17.062Z,-6.92
2023-02-11T06:57:43.632Z,-6.47
2023-02-11T07:00:11.127Z,-6.32
2023-02-11T07:02:38.006Z,-6.10
2023-02-11T07:05:10.949Z,-5.98
2023-02-11T07:07:38.172Z,-5.91
2023-02-11T07:10:05.886Z,-6.07
2023-02-11T07:12:32.704Z,-5.86
2023-02-11T07:14:59.642Z,-5.82
2023-02-11T07:17:26.351Z,-5.73
2023-02-11T07:19:53.476Z,-5.52
2023-02-11T07:22:21.389Z,-5.41
2023-02-11T07:24:48.624Z,-5.16
2023-02-11T07:27:15.415Z,-4.98
2023-02-11T07:29:42.893Z,-5.10
2023-02-11T07:32:10.396Z,-4.91
2023-02-11T07:34:37.360Z,-4.96
2023-02-11T07:37:04.341Z,-4.78
2023-02-11T07:39:31.224Z,-4.54
2023-02-11T07:41:58.430Z,-4.25
2023-02-11T07:44:26.109Z,-3.64
2023-02-11T07:46:53.178Z,-3.13
2023-02-11T07:49:19.966Z,-2.72
2023-02-11T07:51:47.406Z,-3.01
2023-02-11T07:54:14.204Z,-3.40
2023-02-11T07:56:40.966Z,-3.38
2023-02-11T07:59:07.651Z,-3.69
2023-02-11T08:01:34.632Z,-3.98
2023-02-11T08:04:02.757Z,-4.14
2023-02-11T08:06:32.400Z,-4.22
2023-02-11T08:09:06.072Z,-4.28
2023-02-11T08:11:33.139Z,-4.11
2023-02-11T08:13:59.880Z,-4.00
2023-02-11T08:16:35.199Z,-3.95
2023-02-11T08:19:07.307Z,-3.59
2023-02-11T08:21:35.205Z,-3.42
2023-02-11T08:24:04.806Z,-3.53
2023-02-11T08:26:35.602Z,-3.19
2023-02-11T08:29:09.859Z,-2.78
2023-02-11T08:31:40.536Z,-2.79
2023-02-11T08:34:08.572Z,-2.63
2023-02-11T08:36:37.405Z,-2.56
2023-02-11T08:39:19.201Z,-2.51
2023-02-11T08:41:52.980Z,-2.51
2023-02-11T08:44:21.286Z,-2.35
2023-02-11T08:46:58.209Z,-2.33
2023-02-11T08:49:25.983Z,-2.28
2023-02-11T08:51:57.357Z,-2.19
2023-02-11T08:54:26.405Z,-2.13
2023-02-11T08:56:53.257Z,-2.16
2023-02-11T08:59:20.208Z,-2.05
2023-02-11T09:01:47.866Z,-1.92
2023-02-11T09:04:14.940Z,-1.77
2023-02-11T09:06:41.910Z,-1.52
2023-02-11T09:09:23.945Z,-1.19
2023-02-11T09:11:50.674Z,-1.07
2023-02-11T09:14:21.289Z,-0.90
2023-02-11T09:16:48.893Z,-0.88
2023-02-11T09:19:16.212Z,-0.74
2023-02-11T09:21:43.071Z,-0.90
2023-02-11T09:24:10.980Z,-0.93
2023-02-11T09:26:38.556Z,-1.12
2023-02-11T09:29:05.911Z,-1.13
2023-02-11T09:31:34.183Z,-0.98
2023-02-11T09:34:04.383Z,-0.90
2023-02-11T09:36:37.618Z,-1.23
2023-02-11T09:39:06.325Z,-1.17
2023-02-11T09:41:59.674Z,-0.93
2023-02-11T09:44:31.347Z,-0.62
2023-02-11T09:47:34.610Z,-0.51
2023-02-11T09:50:11.272Z,-0.71
2023-02-11T09:52:50.149Z,-0.65
2023-02-11T09:55:31.179Z,-0.45
2023-02-11T09:57:58.508Z,-0.72
2023-02-11T10:00:32.293Z,-0.64
2023-02-11T10:03:13.702Z,-0.49
2023-02-11T10:05:52.433Z,-0.26
2023-02-11T10:08:28.062Z,-0.03
2023-02-11T10:11:08.204Z,0.07
2023-02-11T10:13:47.922Z,0.20
2023-02-11T10:16:26.446Z,0.18
2023-02-11T10:19:11.342Z,-0.28
2023-02-11T10:21:51.609Z,0.41
2023-02-11T10:24:18.914Z,1.04
2023-02-11T10:26:46.172Z,1.33
2023-02-11T10:29:18.807Z,1.80
2023-02-11T10:31:47.169Z,2.50
2023-02-11T10:34:15.216Z,2.47
2023-02-11T10:36:44.012Z,2.08
2023-02-11T10:39:16.428Z,1.75
2023-02-11T10:41:46.056Z,2.47
2023-02-11T10:44:30.974Z,2.96
2023-02-11T10:47:01.935Z,3.23
2023-02-11T10:49:40.562Z,3.38
2023-02-11T10:52:25.473Z,3.40
2023-02-11T10:55:10.221Z,3.72
2023-02-11T10:57:51.028Z,3.87
2023-02-11T11:00:17.801Z,4.12
2023-02-11T11:02:46.737Z,4.43
2023-02-11T11:05:29.845Z,4.99
2023-02-11T11:08:02.315Z,5.19
2023-02-11T11:10:49.913Z,5.01
2023-02-11T11:13:40.935Z,4.93
2023-02-11T11:16:14.606Z,4.71
2023-02-11T11:18:46.955Z,4.63
2023-02-11T11:21:26.021Z,4.56
2023-02-11T11:23:56.317Z,4.74
2023-02-11T11:26:25.737Z,5.39
2023-02-11T11:28:55.125Z,5.70
2023-02-11T11:31:26.782Z,6.26
2023-02-11T11:33:57.156Z,7.21
2023-02-11T11:36:33.388Z,7.47
2023-02-11T11:39:04.579Z,7.97
2023-02-11T11:41:34.867Z,7.69
2023-02-11T11:44:37.697Z,7.70
2023-02-11T11:47:20.957Z,7.16
2023-02-11T11:50:15.256Z,7.06
2023-02-11T11:52:50.814Z,6.80
2023-02-11T11:55:21.967Z,6.76
2023-02-11T11:57:49.504Z,6.46
2023-02-11T12:00:23.945Z,6.09
2023-02-11T12:02:50.866Z,6.55
2023-02-11T12:05:43.075Z,6.72
2023-02-11T12:08:23.446Z,7.24
2023-02-11T12:10:53.450Z,8.08
2023-02-11T12:13:56.940Z,8.67
2023-02-11T12:16:23.676Z,9.36
2023-02-11T12:18:56.117Z,9.97
2023-02-11T12:21:35.249Z,10.51
2023-02-11T12:24:12.572Z,10.81
2023-02-11T12:26:44.708Z,10.65
2023-02-11T12:29:28.164Z,10.87
2023-02-11T12:32:13.684Z,11.03
2023-02-11T12:35:18.094Z,10.97
2023-02-11T12:38:06.501Z,11.17
2023-02-11T12:40:44.093Z,11.41
2023-02-11T12:43:16.628Z,11.19
2023-02-11T12:46:02.529Z,11.06
2023-02-11T12:48:34.720Z,11.25
2023-02-11T12:51:26.496Z,11.29
2023-02-11T12:53:55.773Z,11.35
2023-02-11T12:56:42.542Z,10.52
2023-02-11T12:59:17.263Z,10.50
2023-02-11T13:01:44.942Z,10.68
2023-02-11T13:04:22.134Z,11.08
2023-02-11T13:06:53.850Z,10.71
2023-02-11T13:09:27.067Z,10.63
2023-02-11T13:11:57.954Z,10.94
2023-02-11T13:14:35.430Z,10.68
2023-02-11T13:17:09.514Z,10.67
2023-02-11T13:19:47.454Z,10.89
2023-02-11T13:22:24.380Z,11.21
2023-02-11T13:24:58.485Z,10.95
2023-02-11T13:28:03.917Z,10.24
2023-02-11T13:30:35.024Z,9.74
2023-02-11T13:33:03.362Z,9.83
2023-02-11T13:35:39.059Z,9.94
2023-02-11T13:38:24.010Z,10.17
2023-02-11T13:41:16.587Z,10.61
2023-02-11T13:43:44.171Z,10.90
2023-02-11T13:46:13.421Z,11.11
2023-02-11T13:48:52.695Z,11.46
2023-02-11T13:51:36.118Z,11.49
2023-02-11T13:54:04.502Z,11.83
2023-02-11T13:56:37.415Z,11.87
2023-02-11T13:59:24.515Z,11.48
2023-02-11T14:02:13.652Z,11.03
2023-02-11T14:05:52.885Z,10.81
2023-02-11T14:08:43.383Z,10.51
2023-02-11T14:11:32.325Z,9.89
2023-02-11T14:14:25.267Z,9.51
2023-02-11T14:17:15.790Z,9.26
2023-02-11T14:19:49.428Z,8.98
2023-02-11T14:22:45.434Z,8.70
2023-02-11T14:25:31.841Z,8.31
2023-02-11T14:28:38.872Z,8.42
2023-02-11T14:31:14.704Z,8.36
2023-02-11T14:34:08.061Z,8.30
2023-02-11T14:37:05.534Z,8.25
2023-02-11T14:39:46.902Z,8.21
2023-02-11T14:42:22.516Z,8.15
2023-02-11T14:44:51.284Z,8.12
2023-02-11T14:47:23.455Z,8.05
2023-02-11T14:49:50.664Z,7.97
2023-02-11T14:52:20.292Z,7.88
2023-02-11T14:54:50.242Z,7.75
2023-02-11T14:57:19.276Z,7.67
2023-02-11T14:59:59.285Z,7.64
2023-02-11T15:02:33.217Z,7.49
2023-02-11T15:05:21.477Z,7.46
2023-02-11T15:07:51.676Z,7.46
2023-02-11T15:10:47.545Z,7.41
2023-02-11T15:13:31.112Z,7.38
2023-02-11T15:16:06.774Z,7.24
2023-02-11T15:18:47.142Z,7.04
2023-02-11T15:21:24.415Z,7.00
2023-02-11T15:23:59.470Z,6.98
2023-02-11T15:26:26.451Z,7.01
2023-02-11T15:28:53.382Z,6.95
2023-02-11T15:31:23.689Z,6.93
2023-02-11T15:33:52.061Z,6.88
2023-02-11T15:36:21.956Z,6.70
2023-02-11T15:39:18.770Z,6.72
2023-02-11T15:41:45.722Z,6.49
2023-02-11T15:44:32.856Z,6.61
2023-02-11T15:47:00.388Z,6.52
2023-02-11T15:49:27.396Z,6.46
2023-02-11T15:51:57.088Z,6.37
2023-02-11T15:54:28.075Z,6.20
2023-02-11T15:57:01.358Z,6.21
2023-02-11T15:59:41.583Z,6.04
2023-02-11T16:02:10.066Z,6.01
2023-02-11T16:04:37.584Z,5.80
2023-02-11T16:07:05.188Z,5.37
2023-02-11T16:09:33.398Z,4.94
2023-02-11T16:12:22.681Z,4.93
2023-02-11T16:14:49.423Z,5.05
2023-02-11T16:17:18.815Z,5.06
2023-02-11T16:19:47.734Z,5.06
2023-02-11T16:22:18.202Z,5.06
2023-02-11T16:24:47.491Z,5.02
2023-02-11T16:27:22.685Z,4.88
2023-02-11T16:29:50.923Z,4.80
2023-02-11T16:32:20.972Z,4.77
2023-02-11T16:34:48.096Z,4.77
2023-02-11T16:37:14.836Z,4.83
2023-02-11T16:39:41.831Z,4.87
2023-02-11T16:42:11.343Z,4.93
2023-02-11T16:44:38.200Z,4.96
2023-02-11T16:47:08.334Z,4.89
2023-02-11T16:49:41.629Z,4.46
2023-02-11T16:52:15.021Z,3.86
2023-02-11T16:54:42.289Z,3.80
2023-02-11T16:57:18.066Z,3.86
2023-02-11T16:59:45.493Z,3.67
2023-02-11T17:02:23.993Z,3.36
2023-02-11T17:04:53.592Z,2.99
2023-02-11T17:07:20.328Z,3.15
2023-02-11T17:09:47.132Z,3.26
2023-02-11T17:12:14.300Z,3.26
2023-02-11T17:14:41.047Z,3.17
2023-02-11T17:17:08.076Z,3.13
2023-02-11T17:19:34.766Z,3.14
2023-02-11T17:22:01.481Z,3.13
2023-02-11T17:24:28.243Z,2.95
2023-02-11T17:26:55.004Z,2.87
2023-02-11T17:29:24.459Z,2.94
2023-02-11T17:31:52.459Z,2.97
2023-02-11T17:34:21.172Z,2.91
2023-02-11T17:36:48.251Z,2.76
2023-02-11T17:39:15.448Z,2.59
2023-02-11T17:41:42.264Z,2.45
2023-02-11T17:44:12.364Z,2.25
2023-02-11T17:46:39.260Z,2.07
2023-02-11T17:49:06.044Z,1.95
2023-02-11T17:51:38.059Z,1.89
2023-02-11T17:54:13.320Z,1.77
2023-02-11T17:56:40.682Z,1.72
2023-02-11T17:59:08.600Z,1.76
2023-02-11T18:01:37.462Z,1.75
2023-02-11T18:04:04.978Z,1.76
2023-02-11T18:06:33.776Z,1.78
2023-02-11T18:09:02.460Z,1.69
2023-02-11T18:11:31.090Z,1.81
2023-02-11T18:14:02.242Z,1.85
2023-02-11T18:16:30.027Z,1.86
2023-02-11T18:18:59.957Z,1.85
2023-02-11T18:21:27.010Z,1.67
2023-02-11T18:23:53.900Z,1.06
2023-02-11T18:26:21.823Z,0.86
2023-02-11T18:28:48.641Z,0.75
2023-02-11T18:31:15.668Z,0.69
2023-02-11T18:33:43.446Z,0.70
2023-02-11T18:36:13.783Z,1.02
2023-02-11T18:38:41.419Z,1.15
2023-02-11T18:41:09.015Z,1.23
2023-02-11T18:43:36.560Z,1.33
2023-02-11T18:46:08.652Z,1.41
2023-02-11T18:48:35.574Z,1.41
2023-02-11T18:51:02.302Z,1.43
2023-02-11T18:53:29.226Z,1.16
2023-02-11T18:55:55.949Z,1.21
2023-02-11T18:58:23.050Z,1.29
2023-02-11T19:00:50.283Z,1.27
2023-02-11T19:03:17.259Z,1.32
2023-02-11T19:05:50.072Z,1.28
2023-02-11T19:08:17.779Z,1.23
2023-02-11T19:10:49.599Z,1.08
2023-02-11T19:13:18.536Z,0.97
2023-02-11T19:15:46.621Z,0.80
2023-02-11T19:18:15.200Z,0.54
2023-02-11T19:20:43.489Z,0.44
2023-02-11T19:23:11.770Z,0.43
2023-02-11T19:25:46.241Z,0.50
2023-02-11T19:28:13.775Z,0.33
2023-02-11T19:30:41.384Z,0.27
2023-02-11T19:33:10.215Z,0.13
2023-02-11T19:35:37.422Z,0.01
2023-02-11T19:38:10.178Z,-0.05
2023-02-11T19:40:42.906Z,-0.06
2023-02-11T19:43:11.246Z,0.15
2023-02-11T19:45:39.972Z,0.23
2023-02-11T19:48:10.527Z,0.22
2023-02-11T19:50:37.869Z,0.13
2023-02-11T19:53:05.350Z,0.21
2023-02-11T19:55:35.069Z,0.07
2023-02-11T19:58:02.735Z,0.16
2023-02-11T20:00:31.533Z,-0.13
2023-02-11T20:02:59.268Z,-0.40
2023-02-11T20:05:27.535Z,-0.56
2023-02-11T20:07:56.763Z,-0.50
2023-02-11T20:10:25.599Z,-0.37
2023-02-11T20:12:54.517Z,-0.45
2023-02-11T20:15:22.353Z,-0.75
2023-02-11T20:17:50.363Z,-0.85
2023-02-11T20:20:18.660Z,-0.57
2023-02-11T20:22:49.593Z,-0.48
2023-02-11T20:25:17.484Z,-0.53
2023-02-11T20:27:49.160Z,-0.38
2023-02-11T20:30:21.628Z,-0.23
2023-02-11T20:32:49.586Z,-0.17
2023-02-11T20:35:17.826Z,-0.17
2023-02-11T20:37:47.905Z,-0.19
2023-02-11T20:40:17.016Z,-0.41
2023-02-11T20:42:44.552Z,-0.30
2023-02-11T20:45:14.194Z,-0.13
2023-02-11T20:47:43.619Z,-0.15
2023-02-11T20:50:13.930Z,-0.04
2023-02-11T20:52:41.634Z,0.03
2023-02-11T20:55:08.619Z,0.01
2023-02-11T20:57:36.663Z,-0.03
2023-02-11T21:00:04.365Z,-0.08
2023-02-11T21:02:31.427Z,-0.38
2023-02-11T21:04:58.154Z,-0.34
2023-02-11T21:07:24.972Z,-0.47
2023-02-11T21:09:51.750Z,-0.50
2023-02-11T21:12:18.454Z,-0.50
2023-02-11T21:14:45.389Z,-0.45
2023-02-11T21:17:13.053Z,-0.48
2023-02-11T21:19:41.553Z,-0.64
2023-02-11T21:22:08.862Z,-0.54
2023-02-11T21:24:35.694Z,-0.57
2023-02-11T21:27:03.804Z,-0.57
2023-02-11T21:29:36.657Z,-0.80
2023-02-11T21:32:10.364Z,-0.63
2023-02-11T21:34:38.615Z,-0.77
2023-02-11T21:37:06.361Z,-0.82
2023-02-11T21:39:34.443Z,-0.85
2023-02-11T21:42:01.563Z,-0.96
2023-02-11T21:44:28.309Z,-0.96
2023-02-11T21:46:56.617Z,-1.00
2023-02-11T21:49:25.654Z,-1.00
2023-02-11T21:51:55.170Z,-0.97
2023-02-11T21:54:26.148Z,-0.93
2023-02-11T21:56:53.183Z,-1.01
2023-02-11T21:59:20.090Z,-0.98
2023-02-11T22:01:49.101Z,-0.97
2023-02-11T22:04:17.239Z,-1.14
2023-02-11T22:06:44.882Z,-1.22
2023-02-11T22:09:13.237Z,-1.25
2023-02-11T22:11:41.679Z,-1.42
2023-02-11T22:14:09.728Z,-1.42
2023-02-11T22:16:38.348Z,-1.50
2023-02-11T22:19:08.755Z,-1.42
2023-02-11T22:21:36.895Z,-1.52
2023-02-11T22:24:04.579Z,-1.45
2023-02-11T22:26:32.935Z,-1.52
2023-02-11T22:29:00.011Z,-1.59
2023-02-11T22:31:29.727Z,-1.54
2023-02-11T22:33:57.411Z,-1.69
2023-02-11T22:36:36.137Z,-1.49
2023-02-11T22:39:06.371Z,-1.43
2023-02-11T22:41:33.679Z,-1.40
2023-02-11T22:44:00.412Z,-1.36
2023-02-11T22:46:37.009Z,-1.48
2023-02-11T22:49:07.862Z,-1.47
2023-02-11T22:51:34.700Z,-1.43
2023-02-11T22:54:06.225Z,-1.56
2023-02-11T22:56:34.661Z,-1.53
2023-02-11T22:59:03.799Z,-1.75
2023-02-11T23:01:31.700Z,-1.75
2023-02-11T23:04:03.958Z,-1.80
2023-02-11T23:06:30.933Z,-1.76
2023-02-11T23:08:57.694Z,-1.91
2023-02-11T23:11:26.790Z,-1.75
2023-02-11T23:13:54.259Z,-1.76
2023-02-11T23:16:23.434Z,-1.84
2023-02-11T23:18:50.942Z,-1.90
2023-02-11T23:21:24.405Z,-1.76
2023-02-11T23:23:58.603Z,-1.68
2023-02-11T23:26:26.146Z,-1.68
2023-02-11T23:28:53.033Z,-1.70
2023-02-11T23:31:34.031Z,-1.60
2023-02-11T23:34:01.921Z,-1.57
2023-02-11T23:36:29.538Z,-1.52
2023-02-11T23:38:56.423Z,-1.60
2023-02-11T23:41:24.270Z,-1.62
2023-02-11T23:43:53.331Z,-1.63
2023-02-11T23:46:22.125Z,-1.71
2023-02-11T23:48:50.076Z,-1.64
2023-02-11T23:51:17.266Z,-1.48
2023-02-11T23:53:45.908Z,-1.49
2023-02-11T23:56:21.535Z,-1.39
2023-02-11T23:58:49.853Z,-1.36
